createdAt,value
2019-01-10T00:02:03.480Z,2.73
2019-01-10T00:06:06.891Z,2.73
2019-01-10T00:10:14.037Z,2.90
2019-01-10T00:14:17.823Z,2.57
2019-01-10T00:18:21.251Z,2.80
2019-01-10T00:22:24.679Z,2.67
2019-01-10T00:26:28.091Z,2.50
2019-01-10T00:30:31.511Z,2.37
2019-01-10T00:34:34.937Z,2.90
2019-01-10T00:38:38.352Z,2.47
2019-01-10T00:42:49.043Z,2.70
2019-01-10T00:46:47.079Z,2.60
2019-01-10T00:50:50.515Z,2.87
2019-01-10T00:54:53.941Z,2.50
2019-01-10T00:58:57.359Z,2.70
2019-01-10T01:03:00.776Z,2.83
2019-01-10T01:07:04.668Z,2.60
2019-01-10T01:11:08.107Z,2.50
2019-01-10T01:15:14.071Z,2.50
2019-01-10T01:19:17.487Z,3.10
2019-01-10T01:23:20.901Z,2.47
2019-01-10T01:27:26.982Z,2.70
2019-01-10T01:31:30.405Z,2.60
2019-01-10T01:35:34.064Z,2.77
2019-01-10T01:39:37.523Z,2.80
2019-01-10T01:43:41.158Z,2.60
2019-01-10T01:47:44.752Z,2.67
2019-01-10T01:51:48.207Z,2.70
2019-01-10T01:55:51.762Z,2.63
2019-01-10T01:59:55.192Z,3.10
2019-01-10T02:03:58.714Z,2.50
2019-01-10T02:08:02.259Z,3.20
2019-01-10T02:12:05.847Z,2.40
2019-01-10T02:16:10.859Z,2.60
2019-01-10T02:20:15.914Z,2.70
2019-01-10T02:24:19.493Z,2.70
2019-01-10T02:28:22.988Z,2.77
2019-01-10T02:32:26.479Z,2.57
2019-01-10T02:36:30.091Z,2.80
2019-01-10T02:40:33.543Z,2.30
2019-01-10T02:44:37.046Z,2.90
2019-01-10T02:48:40.471Z,2.80
2019-01-10T02:52:43.886Z,2.50
2019-01-10T02:56:47.295Z,2.77
2019-01-10T03:00:50.723Z,2.80
2019-01-10T03:04:54.151Z,2.70
2019-01-10T03:08:57.585Z,3.13
2019-01-10T03:13:01.003Z,2.83
2019-01-10T03:17:04.415Z,2.80
2019-01-10T03:21:07.845Z,2.70
2019-01-10T03:25:11.274Z,3.03
2019-01-10T03:29:14.700Z,2.87
2019-01-10T03:33:18.125Z,3.00
2019-01-10T03:37:21.564Z,2.83
2019-01-10T03:41:24.982Z,3.00
2019-01-10T03:45:28.403Z,3.10
2019-01-10T03:49:31.833Z,3.50
2019-01-10T03:53:35.315Z,2.70
2019-01-10T03:57:38.759Z,3.07
2019-01-10T04:01:42.254Z,2.67
2019-01-10T04:05:45.679Z,2.73
2019-01-10T04:09:49.108Z,2.73
2019-01-10T04:13:57.594Z,2.87
2019-01-10T04:17:57.853Z,2.90
2019-01-10T04:22:01.278Z,2.70
2019-01-10T04:26:04.695Z,3.27
2019-01-10T04:30:16.916Z,2.67
2019-01-10T04:34:20.326Z,5.63
2019-01-10T04:38:23.758Z,2.80
2019-01-10T04:42:27.180Z,2.83
2019-01-10T04:46:32.044Z,2.73
2019-01-10T04:50:35.491Z,2.57
2019-01-10T04:54:38.904Z,2.60
2019-01-10T04:58:42.346Z,2.77
2019-01-10T05:02:45.773Z,2.50
2019-01-10T05:06:49.201Z,2.60
2019-01-10T05:10:52.616Z,2.63
2019-01-10T05:14:56.035Z,2.70
2019-01-10T05:18:59.468Z,3.00
2019-01-10T05:23:02.898Z,2.60
2019-01-10T05:27:06.513Z,2.30
2019-01-10T05:31:09.919Z,2.33
2019-01-10T05:35:13.359Z,2.43
2019-01-10T05:39:16.774Z,2.30
2019-01-10T05:43:20.206Z,3.67
2019-01-10T05:47:23.623Z,2.33
2019-01-10T05:51:27.064Z,2.10
2019-01-10T05:55:30.487Z,2.20
2019-01-10T05:59:33.925Z,2.17
2019-01-10T06:03:37.342Z,2.40
2019-01-10T06:07:40.749Z,2.10
2019-01-10T06:11:44.167Z,2.50
2019-01-10T06:15:47.599Z,2.37
2019-01-10T06:19:51.019Z,2.40
2019-01-10T06:23:54.444Z,2.13
2019-01-10T06:27:57.850Z,2.80
2019-01-10T06:32:01.284Z,3.00
2019-01-10T06:36:04.783Z,2.37
2019-01-10T06:40:11.212Z,3.00
2019-01-10T06:44:14.618Z,2.90
2019-01-10T06:48:18.044Z,2.67
2019-01-10T06:52:21.483Z,3.00
2019-01-10T06:56:26.552Z,3.17
2019-01-10T07:00:29.973Z,2.97
2019-01-10T07:04:33.383Z,3.37
2019-01-10T07:08:36.839Z,3.00
2019-01-10T07:12:40.264Z,3.33
2019-01-10T07:16:43.683Z,3.20
2019-01-10T07:20:47.115Z,3.70
2019-01-10T07:24:51.579Z,3.30
2019-01-10T07:28:54.998Z,3.23
2019-01-10T07:32:58.425Z,3.30
2019-01-10T07:37:01.871Z,3.50
2019-01-10T07:41:05.295Z,4.03
2019-01-10T07:45:14.793Z,4.23
2019-01-10T07:49:21.773Z,4.20
2019-01-10T07:53:25.201Z,3.90
2019-01-10T07:57:28.619Z,3.50
2019-01-10T08:01:51.403Z,3.17
2019-01-10T08:05:54.804Z,4.27
2019-01-10T08:09:58.269Z,4.20
2019-01-10T08:14:01.730Z,3.30
2019-01-10T08:18:05.626Z,3.40
2019-01-10T08:22:09.035Z,4.37
2019-01-10T08:26:12.456Z,3.97
2019-01-10T08:30:21.372Z,4.00
2019-01-10T08:34:24.796Z,3.67
2019-01-10T08:38:28.219Z,3.47
2019-01-10T08:42:31.643Z,3.40
2019-01-10T08:46:35.063Z,3.17
2019-01-10T08:50:38.535Z,3.13
2019-01-10T08:54:41.968Z,3.20
2019-01-10T08:58:45.383Z,3.60
2019-01-10T09:02:48.880Z,3.40
2019-01-10T09:06:52.308Z,3.27
2019-01-10T09:10:55.816Z,3.80
2019-01-10T09:14:59.247Z,3.63
2019-01-10T09:19:02.671Z,3.60
2019-01-10T09:23:06.086Z,3.40
2019-01-10T09:27:09.510Z,3.47
2019-01-10T09:31:12.943Z,3.23
2019-01-10T09:35:16.540Z,3.00
2019-01-10T09:39:19.947Z,3.27
2019-01-10T09:43:23.371Z,3.27
2019-01-10T09:47:26.875Z,3.67
2019-01-10T09:51:30.378Z,3.33
2019-01-10T09:55:33.800Z,2.90
2019-01-10T09:59:37.215Z,3.30
2019-01-10T10:03:40.653Z,3.40
2019-01-10T10:07:44.082Z,2.87
2019-01-10T10:11:47.512Z,2.60
2019-01-10T10:15:52.819Z,2.90
2019-01-10T10:19:56.083Z,2.90
2019-01-10T10:23:59.516Z,3.30
2019-01-10T10:28:03.071Z,3.07
2019-01-10T10:32:06.515Z,2.53
2019-01-10T10:36:09.983Z,2.00
2019-01-10T10:40:18.204Z,2.50
2019-01-10T10:44:21.623Z,2.57
2019-01-10T10:48:25.047Z,2.40
2019-01-10T10:52:28.471Z,2.50
2019-01-10T10:56:31.882Z,2.20
2019-01-10T11:00:35.382Z,2.20
2019-01-10T11:04:38.812Z,2.10
2019-01-10T11:08:42.238Z,1.97
2019-01-10T11:12:45.674Z,1.97
2019-01-10T11:16:49.079Z,1.97
2019-01-10T11:20:52.504Z,1.93
2019-01-10T11:24:55.940Z,1.90
2019-01-10T11:28:59.380Z,2.10
2019-01-10T11:33:02.805Z,2.20
2019-01-10T11:37:06.328Z,2.10
2019-01-10T11:41:09.752Z,1.83
2019-01-10T11:45:16.421Z,1.80
2019-01-10T11:49:19.842Z,2.00
2019-01-10T11:53:23.263Z,2.00
2019-01-10T11:57:26.901Z,2.00
2019-01-10T12:01:30.410Z,2.10
2019-01-10T12:05:33.844Z,2.07
2019-01-10T12:09:37.267Z,2.00
2019-01-10T12:13:40.679Z,2.40
2019-01-10T12:17:44.648Z,2.20
2019-01-10T12:21:48.103Z,2.10
2019-01-10T12:25:51.527Z,2.30
2019-01-10T12:29:54.992Z,2.10
2019-01-10T12:33:58.392Z,2.30
2019-01-10T12:38:01.821Z,2.00
2019-01-10T12:42:05.320Z,2.17
2019-01-10T12:46:08.755Z,2.17
2019-01-10T12:50:15.239Z,2.00
2019-01-10T12:54:18.672Z,2.00
2019-01-10T12:58:22.090Z,2.27
2019-01-10T13:02:25.521Z,2.40
2019-01-10T13:06:28.953Z,2.30
2019-01-10T13:10:32.457Z,2.00
2019-01-10T13:14:35.881Z,2.10
2019-01-10T13:18:39.307Z,2.27
2019-01-10T13:22:42.799Z,2.13
2019-01-10T13:26:46.219Z,2.07
2019-01-10T13:30:49.656Z,2.10
2019-01-10T13:34:53.086Z,2.00
2019-01-10T13:38:56.503Z,2.20
2019-01-10T13:43:00.001Z,2.00
2019-01-10T13:47:03.791Z,2.10
2019-01-10T13:51:07.211Z,3.13
2019-01-10T13:55:13.188Z,2.10
2019-01-10T13:59:17.086Z,2.40
2019-01-10T14:03:20.532Z,2.20
2019-01-10T14:07:23.946Z,2.00
2019-01-10T14:11:27.369Z,2.30
2019-01-10T14:15:31.847Z,2.57
2019-01-10T14:19:35.274Z,2.40
2019-01-10T14:23:38.689Z,2.07
2019-01-10T14:27:42.195Z,1.90
2019-01-10T14:31:45.708Z,2.30
2019-01-10T14:35:49.137Z,2.20
2019-01-10T14:39:52.572Z,2.13
2019-01-10T14:43:56.050Z,2.30
2019-01-10T14:48:01.906Z,1.80
2019-01-10T14:52:04.984Z,2.00
2019-01-10T14:56:08.405Z,2.00
2019-01-10T15:00:23.287Z,1.93
2019-01-10T15:04:26.705Z,2.20
2019-01-10T15:08:30.167Z,2.70
2019-01-10T15:12:33.597Z,2.50
2019-01-10T15:16:37.015Z,2.10
2019-01-10T15:20:40.433Z,1.80
2019-01-10T15:24:43.861Z,2.50
2019-01-10T15:28:47.688Z,2.10
2019-01-10T15:32:51.122Z,2.10
2019-01-10T15:36:54.557Z,1.83
2019-01-10T15:40:57.962Z,2.60
2019-01-10T15:45:01.426Z,2.30
2019-01-10T15:49:04.928Z,2.70
2019-01-10T15:53:08.383Z,2.77
2019-01-10T15:57:11.843Z,2.50
2019-01-10T16:01:15.272Z,2.30
2019-01-10T16:05:18.962Z,2.40
2019-01-10T16:09:22.384Z,2.00
2019-01-10T16:13:25.810Z,2.10
2019-01-10T16:17:29.210Z,2.20
2019-01-10T16:21:32.647Z,2.50
2019-01-10T16:25:36.075Z,2.30
2019-01-10T16:29:39.512Z,2.00
2019-01-10T16:33:42.919Z,2.33
2019-01-10T16:37:46.349Z,2.20
2019-01-10T16:41:49.769Z,2.37
2019-01-10T16:45:53.196Z,1.60
2019-01-10T16:49:57.888Z,2.10
2019-01-10T16:54:01.611Z,2.50
2019-01-10T16:58:05.483Z,1.70
2019-01-10T17:02:08.903Z,2.10
2019-01-10T17:06:12.343Z,1.73
2019-01-10T17:10:16.496Z,1.40
2019-01-10T17:14:19.927Z,1.60
2019-01-10T17:18:23.346Z,1.70
2019-01-10T17:22:26.774Z,1.60
2019-01-10T17:26:30.199Z,1.80
2019-01-10T17:30:33.611Z,1.60
2019-01-10T17:34:37.035Z,2.00
2019-01-10T17:38:40.535Z,1.90
2019-01-10T17:42:44.354Z,1.70
2019-01-10T17:46:47.787Z,1.70
2019-01-10T17:50:51.207Z,1.70
2019-01-10T17:54:54.634Z,1.53
2019-01-10T17:58:58.063Z,1.53
2019-01-10T18:03:01.490Z,1.70
2019-01-10T18:07:04.900Z,1.60
2019-01-10T18:11:08.327Z,1.90
2019-01-10T18:15:14.403Z,1.70
2019-01-10T18:19:17.832Z,1.57
2019-01-10T18:23:21.335Z,1.70
2019-01-10T18:27:24.758Z,1.97
2019-01-10T18:31:28.185Z,1.80
2019-01-10T18:35:31.891Z,3.60
2019-01-10T18:39:35.316Z,2.60
2019-01-10T18:43:38.724Z,2.60
2019-01-10T18:47:43.005Z,2.40
2019-01-10T18:51:46.431Z,2.33
2019-01-10T18:55:49.863Z,2.00
2019-01-10T18:59:53.282Z,2.07
2019-01-10T19:03:56.703Z,1.97
2019-01-10T19:08:00.135Z,1.90
2019-01-10T19:12:03.555Z,1.70
2019-01-10T19:16:06.980Z,3.40
2019-01-10T19:20:18.931Z,1.70
2019-01-10T19:24:22.347Z,1.70
2019-01-10T19:28:25.780Z,2.00
2019-01-10T19:32:29.204Z,2.13
2019-01-10T19:36:32.688Z,2.47
2019-01-10T19:40:36.136Z,2.20
2019-01-10T19:44:39.542Z,2.30
2019-01-10T19:48:42.983Z,2.50
2019-01-10T19:52:47.771Z,2.73
2019-01-10T19:56:51.520Z,2.90
2019-01-10T20:00:55.003Z,2.70
2019-01-10T20:04:58.443Z,2.97
2019-01-10T20:09:01.891Z,3.10
2019-01-10T20:13:05.388Z,3.10
2019-01-10T20:17:08.825Z,3.47
2019-01-10T20:21:12.231Z,3.57
2019-01-10T20:25:15.658Z,3.73
2019-01-10T20:29:20.657Z,4.20
2019-01-10T20:33:24.079Z,3.60
2019-01-10T20:37:27.522Z,3.40
2019-01-10T20:41:31.023Z,3.10
2019-01-10T20:45:34.445Z,3.70
2019-01-10T20:49:37.871Z,3.93
2019-01-10T20:53:41.312Z,4.17
2019-01-10T20:57:44.929Z,4.40
2019-01-10T21:01:48.364Z,4.57
2019-01-10T21:05:51.791Z,4.87
2019-01-10T21:09:55.230Z,4.10
2019-01-10T21:13:58.698Z,5.10
2019-01-10T21:18:02.133Z,4.33
2019-01-10T21:22:05.561Z,5.13
2019-01-10T21:26:08.970Z,4.90
2019-01-10T21:30:15.810Z,5.13
2019-01-10T21:34:19.218Z,4.60
2019-01-10T21:38:22.711Z,4.80
2019-01-10T21:42:26.167Z,4.83
2019-01-10T21:46:29.594Z,5.00
2019-01-10T21:50:33.019Z,5.37
2019-01-10T21:54:38.069Z,4.40
2019-01-10T21:58:41.500Z,17.63
2019-01-10T22:02:44.923Z,5.10
2019-01-10T22:06:48.342Z,4.97
2019-01-10T22:10:51.776Z,4.40
2019-01-10T22:14:55.212Z,4.20
2019-01-10T22:18:58.813Z,4.50
2019-01-10T22:23:02.335Z,4.20
2019-01-10T22:27:05.828Z,4.20
2019-01-10T22:31:09.250Z,4.20
2019-01-10T22:35:15.383Z,4.30
2019-01-10T22:39:18.807Z,4.53
2019-01-10T22:43:41.577Z,5.43
2019-01-10T22:47:44.998Z,6.00
2019-01-10T22:51:48.627Z,4.80
2019-01-10T22:55:52.158Z,4.57
2019-01-10T22:59:55.598Z,4.53
2019-01-10T23:03:59.173Z,4.97
2019-01-10T23:08:02.667Z,4.63
2019-01-10T23:12:06.997Z,4.80
2019-01-10T23:16:10.440Z,5.20
2019-01-10T23:20:14.117Z,4.70
2019-01-10T23:24:17.793Z,4.80
2019-01-10T23:28:21.276Z,4.50
2019-01-10T23:32:24.793Z,4.37
2019-01-10T23:36:28.258Z,5.00
2019-01-10T23:40:31.714Z,5.07
2019-01-10T23:44:35.195Z,5.90
2019-01-10T23:48:38.607Z,4.53
2019-01-10T23:52:42.131Z,5.10
2019-01-10T23:56:45.636Z,4.70
